หน้าหลัก
METAR-TAF:

METAR-TAF

ท่าอากาศยาน :

Namsos, นอร์เวย์

ละติจูด: 64-28N, ลองจิจูด: 011-35E, ความสูง: 0 ม.

การสังเกตสภาพอากาศปัจจุบัน

รายงานได้ทำขึ้นเมื่อ 13 นาทีที่แล้ว ณ เวลา 00:50 UTC
ลม 3 นอตจากตะวันออก/ตะวันออกเฉียงเหนือ
อุณหภูมิ 10°C
ความชื้น 100%
ความกดอากาศ 1017 hPa
ทัศนวิสัย 10 กม. หรือมากกว่า

METAR: ENNM 200050Z AUTO 07003KT 9999 NCD 10/10 Q1017

เวลา: 03:03 (01:03 UTC)

การพยากรณ์

รายงานได้ทำขึ้นเมื่อ 11 ชั่วโมงและ 3 นาทีที่แล้ว ณ เวลา 14:00 UTC
การพยากรณ์มีผลตั้งแต่วันที่ 19 ณ เวลา 15 UTC จนถึงวันที่ 19 ณ เวลา 21 UTC
ลม 5 นอตจากตะวันตก
ทัศนวิสัย 10 กม. หรือมากกว่า
มีเมฆกระจายเป็นบางส่วนที่ความสูง 2000 ฟุต

TAF: ENNM 191400Z 1915/1921 28005KT 9999 SCT020

สังเกตการณ์สภาพอากาศและพยากรณ์อากาศของสนามบินมากกว่า 4000 แห่ง (รายงาน METAR และ TAF).

สถานีที่ดูได้จะแสดงไว้ด้วยจุดสีเหลืองและสีแดงบนแผนที่.

เลื่อนเมาส์ไปเหนือจุดเพื่อดูชื่อสถานี.

แล้วคลิกเพื่อดูสังเกตการณ์และการพยากรณ์สภาพอากาศ.

ในการเปลี่ยนแผนที่: คลิกที่ปุ่มสีเขียวที่มีกากบาทสีดำเพื่อซูมเข้า; ที่ปุ่มสีเขียวที่มีขีดเพื่อซูมออก; หรือที่ลูกศรสีเขียวเพื่อไปยังแผนที่ที่อยู่ติดกัน.


METAR-TAF: